createdAt,value
2017-05-28T00:02:02.307Z,6.20
2017-05-28T00:04:29.499Z,7.66
2017-05-28T00:06:56.674Z,4.95
2017-05-28T00:09:23.859Z,5.40
2017-05-28T00:11:51.012Z,4.63
2017-05-28T00:14:18.190Z,4.25
2017-05-28T00:16:45.456Z,5.32
2017-05-28T00:19:12.632Z,5.17
2017-05-28T00:21:39.764Z,4.35
2017-05-28T00:24:06.936Z,4.20
2017-05-28T00:26:34.108Z,5.03
2017-05-28T00:29:01.261Z,4.83
2017-05-28T00:31:28.432Z,4.75
2017-05-28T00:33:55.816Z,4.47
2017-05-28T00:36:23.125Z,5.30
2017-05-28T00:38:50.311Z,4.72
2017-05-28T00:41:17.570Z,4.63
2017-05-28T00:43:44.750Z,5.92
2017-05-28T00:46:12.019Z,4.82
2017-05-28T00:48:39.191Z,4.65
2017-05-28T00:51:06.342Z,4.90
2017-05-28T00:53:33.632Z,4.20
2017-05-28T00:56:00.915Z,5.37
2017-05-28T00:58:28.107Z,5.20
2017-05-28T01:00:55.416Z,4.80
2017-05-28T01:03:22.582Z,4.40
2017-05-28T01:05:49.762Z,4.52
2017-05-28T01:08:16.975Z,5.57
2017-05-28T01:10:44.182Z,4.37
2017-05-28T01:13:11.357Z,4.25
2017-05-28T01:15:38.590Z,4.45
2017-05-28T01:18:05.761Z,4.93
2017-05-28T01:20:33.016Z,3.60
2017-05-28T01:23:00.200Z,4.00
2017-05-28T01:25:27.356Z,3.80
2017-05-28T01:27:54.540Z,4.05
2017-05-28T01:30:21.726Z,3.60
2017-05-28T01:32:48.980Z,3.82
2017-05-28T01:35:16.236Z,5.64
2017-05-28T01:37:43.461Z,3.96
2017-05-28T01:40:10.885Z,4.02
2017-05-28T01:42:38.065Z,4.87
2017-05-28T01:45:05.933Z,4.02
2017-05-28T01:47:33.214Z,4.43
2017-05-28T01:50:00.390Z,5.33
2017-05-28T01:52:27.587Z,4.52
2017-05-28T01:54:54.763Z,3.97
2017-05-28T01:57:21.953Z,5.55
2017-05-28T01:59:49.132Z,4.72
2017-05-28T02:02:16.282Z,4.80
2017-05-28T02:04:43.483Z,4.77
2017-05-28T02:07:10.676Z,4.80
2017-05-28T02:09:38.012Z,5.30
2017-05-28T02:12:05.287Z,4.82
2017-05-28T02:14:32.445Z,5.24
2017-05-28T02:16:59.733Z,4.98
2017-05-28T02:19:26.907Z,5.42
2017-05-28T02:21:54.075Z,4.95
2017-05-28T02:24:21.257Z,5.32
2017-05-28T02:26:48.456Z,4.60
2017-05-28T02:29:15.630Z,4.83
2017-05-28T02:31:42.812Z,4.90
2017-05-28T02:34:10.140Z,4.70
2017-05-28T02:36:37.318Z,4.87
2017-05-28T02:39:04.586Z,4.73
2017-05-28T02:41:31.765Z,4.73
2017-05-28T02:43:59.009Z,4.60
2017-05-28T02:46:26.525Z,4.70
2017-05-28T02:48:53.713Z,5.37
2017-05-28T02:51:20.915Z,4.80
2017-05-28T02:53:48.618Z,4.70
2017-05-28T02:56:15.782Z,5.13
2017-05-28T02:58:43.267Z,5.00
2017-05-28T03:01:10.457Z,4.93
2017-05-28T03:03:37.779Z,4.53
2017-05-28T03:06:04.987Z,5.08
2017-05-28T03:08:32.447Z,5.23
2017-05-28T03:10:59.615Z,5.28
2017-05-28T03:13:27.068Z,5.22
2017-05-28T03:15:54.636Z,5.43
2017-05-28T03:18:21.808Z,4.90
2017-05-28T03:20:48.976Z,4.60
2017-05-28T03:23:16.273Z,6.07
2017-05-28T03:25:43.449Z,5.13
2017-05-28T03:28:10.849Z,4.90
2017-05-28T03:30:38.033Z,5.52
2017-05-28T03:33:05.336Z,5.67
2017-05-28T03:35:32.612Z,5.25
2017-05-28T03:37:59.824Z,7.65
2017-05-28T03:40:27.654Z,5.20
2017-05-28T03:42:55.181Z,5.30
2017-05-28T03:45:22.358Z,5.30
2017-05-28T03:47:49.595Z,5.47
2017-05-28T03:51:21.333Z,5.23
2017-05-28T03:53:48.529Z,5.30
2017-05-28T03:56:15.705Z,4.52
2017-05-28T03:58:42.883Z,4.60
2017-05-28T04:01:10.078Z,4.57
2017-05-28T04:03:37.366Z,4.83
2017-05-28T04:06:04.543Z,5.88
2017-05-28T04:08:31.710Z,3.90
2017-05-28T04:10:58.872Z,3.82
2017-05-28T04:13:26.052Z,4.30
2017-05-28T04:15:53.329Z,3.88
2017-05-28T04:18:20.603Z,3.58
2017-05-28T04:20:48.292Z,3.78
2017-05-28T04:23:15.496Z,3.53
2017-05-28T04:25:42.689Z,3.80
2017-05-28T04:28:09.869Z,3.55
2017-05-28T04:30:37.041Z,4.10
2017-05-28T04:33:04.225Z,3.68
2017-05-28T04:35:31.425Z,3.50
2017-05-28T04:37:58.702Z,3.73
2017-05-28T04:40:25.971Z,3.50
2017-05-28T04:42:53.134Z,4.03
2017-05-28T04:45:20.299Z,3.78
2017-05-28T04:47:47.494Z,3.43
2017-05-28T04:50:15.171Z,3.38
2017-05-28T04:52:42.351Z,3.78
2017-05-28T04:55:09.558Z,3.73
2017-05-28T04:57:36.725Z,3.93
2017-05-28T05:00:03.961Z,3.63
2017-05-28T05:02:31.176Z,3.60
2017-05-28T05:04:58.395Z,3.77
2017-05-28T05:07:25.618Z,3.33
2017-05-28T05:09:52.850Z,3.82
2017-05-28T05:12:20.041Z,3.64
2017-05-28T05:14:47.219Z,4.75
2017-05-28T05:17:14.408Z,3.90
2017-05-28T05:19:41.619Z,3.68
2017-05-28T05:22:08.814Z,3.80
2017-05-28T05:24:35.988Z,3.30
2017-05-28T05:27:03.562Z,3.42
2017-05-28T05:29:30.840Z,3.43
2017-05-28T05:31:58.056Z,4.00
2017-05-28T05:34:25.309Z,3.63
2017-05-28T05:36:52.513Z,3.40
2017-05-28T05:39:19.711Z,3.40
2017-05-28T05:41:46.970Z,3.20
2017-05-28T05:44:14.177Z,4.30
2017-05-28T05:46:41.460Z,3.03
2017-05-28T05:49:08.614Z,3.57
2017-05-28T05:51:35.788Z,3.20
2017-05-28T05:54:04.096Z,3.15
2017-05-28T05:56:31.573Z,3.28
2017-05-28T05:58:58.743Z,3.00
2017-05-28T06:01:25.926Z,3.12
2017-05-28T06:03:53.140Z,3.35
2017-05-28T06:06:20.323Z,3.00
2017-05-28T06:08:47.536Z,3.02
2017-05-28T06:11:15.755Z,3.40
2017-05-28T06:13:43.005Z,3.54
2017-05-28T06:16:10.223Z,3.68
2017-05-28T06:18:37.418Z,3.47
2017-05-28T06:21:04.594Z,3.28
2017-05-28T06:23:31.783Z,3.93
2017-05-28T06:25:58.979Z,3.30
2017-05-28T06:28:26.139Z,3.10
2017-05-28T06:30:53.319Z,3.07
2017-05-28T06:33:20.516Z,3.60
2017-05-28T06:35:49.700Z,3.23
2017-05-28T06:38:16.909Z,3.48
2017-05-28T06:40:44.249Z,4.40
2017-05-28T06:43:11.527Z,3.90
2017-05-28T06:45:38.742Z,5.10
2017-05-28T06:48:05.915Z,3.40
2017-05-28T06:50:33.090Z,3.03
2017-05-28T06:53:00.330Z,3.63
2017-05-28T06:55:27.588Z,3.30
2017-05-28T06:57:54.863Z,3.53
2017-05-28T07:00:22.136Z,2.82
2017-05-28T07:02:49.319Z,3.40
2017-05-28T07:05:16.585Z,4.42
2017-05-28T07:07:43.862Z,3.80
2017-05-28T07:10:11.078Z,3.55
2017-05-28T07:12:38.333Z,4.27
2017-05-28T07:15:05.578Z,2.97
2017-05-28T07:17:32.852Z,3.60
2017-05-28T07:20:00.070Z,3.10
2017-05-28T07:22:31.295Z,3.28
2017-05-28T07:25:00.684Z,3.95
2017-05-28T07:27:28.099Z,3.67
2017-05-28T07:29:55.309Z,4.42
2017-05-28T07:32:22.940Z,2.88
2017-05-28T07:34:50.662Z,3.02
2017-05-28T07:37:18.204Z,2.92
2017-05-28T07:39:45.477Z,2.90
2017-05-28T07:42:12.666Z,2.88
2017-05-28T07:44:40.165Z,2.92
2017-05-28T07:47:07.512Z,2.70
2017-05-28T07:49:34.699Z,2.70
2017-05-28T07:52:04.173Z,2.90
2017-05-28T07:54:31.374Z,2.70
2017-05-28T07:56:58.752Z,3.17
2017-05-28T07:59:26.434Z,2.80
2017-05-28T08:01:53.632Z,2.60
2017-05-28T08:04:21.422Z,3.45
2017-05-28T08:06:48.665Z,2.73
2017-05-28T08:09:15.900Z,3.33
2017-05-28T08:11:43.395Z,3.15
2017-05-28T08:14:10.693Z,2.75
2017-05-28T08:16:37.972Z,4.35
2017-05-28T08:19:05.346Z,3.00
2017-05-28T08:21:33.129Z,3.35
2017-05-28T08:24:00.404Z,2.80
2017-05-28T08:26:27.679Z,2.73
2017-05-28T08:28:55.157Z,3.20
2017-05-28T08:31:22.359Z,3.23
2017-05-28T08:33:49.603Z,3.42
2017-05-28T08:36:16.979Z,3.48
2017-05-28T08:38:44.253Z,3.60
2017-05-28T08:41:11.444Z,3.53
2017-05-28T08:43:38.700Z,4.55
2017-05-28T08:46:06.556Z,3.60
2017-05-28T08:48:33.753Z,3.68
2017-05-28T08:51:01.156Z,3.83
2017-05-28T08:53:29.277Z,4.03
2017-05-28T08:55:56.481Z,4.67
2017-05-28T08:58:24.312Z,3.65
2017-05-28T09:00:51.570Z,3.88
2017-05-28T09:03:18.942Z,6.40
2017-05-28T09:05:46.214Z,3.68
2017-05-28T09:08:14.711Z,4.20
2017-05-28T09:10:42.195Z,3.94
2017-05-28T09:13:09.578Z,4.46
2017-05-28T09:15:36.818Z,3.80
2017-05-28T09:18:04.179Z,3.38
2017-05-28T09:20:31.501Z,4.20
2017-05-28T09:22:58.772Z,5.20
2017-05-28T09:25:26.554Z,4.16
2017-05-28T09:27:53.809Z,3.90
2017-05-28T09:30:21.014Z,3.70
2017-05-28T09:32:49.304Z,3.87
2017-05-28T09:35:16.465Z,4.00
2017-05-28T09:37:43.675Z,4.13
2017-05-28T09:40:11.839Z,3.65
2017-05-28T09:42:39.613Z,4.00
2017-05-28T09:45:06.897Z,3.80
2017-05-28T09:47:34.692Z,3.85
2017-05-28T09:50:02.229Z,3.52
2017-05-28T09:52:29.392Z,3.60
2017-05-28T09:54:56.577Z,3.50
2017-05-28T09:57:23.737Z,4.23
2017-05-28T09:59:50.904Z,3.70
2017-05-28T10:02:18.593Z,3.70
2017-05-28T10:04:45.769Z,3.80
2017-05-28T10:07:12.972Z,4.18
2017-05-28T10:09:40.298Z,3.60
2017-05-28T10:12:07.500Z,4.15
2017-05-28T10:14:34.678Z,3.55
2017-05-28T10:17:01.841Z,3.75
2017-05-28T10:19:28.995Z,3.98
2017-05-28T10:21:56.166Z,3.60
2017-05-28T10:24:23.359Z,4.00
2017-05-28T10:26:50.531Z,3.90
2017-05-28T10:29:17.708Z,3.98
2017-05-28T10:31:45.216Z,3.98
2017-05-28T10:34:12.544Z,4.02
2017-05-28T10:36:39.978Z,4.10
2017-05-28T10:39:07.173Z,4.08
2017-05-28T10:41:34.353Z,4.92
2017-05-28T10:44:01.826Z,4.00
2017-05-28T10:46:29.669Z,3.90
2017-05-28T10:48:58.860Z,4.00
2017-05-28T10:51:26.168Z,3.97
2017-05-28T10:53:53.340Z,3.90
2017-05-28T10:56:20.586Z,4.07
2017-05-28T10:58:47.774Z,4.05
2017-05-28T11:01:14.945Z,4.55
2017-05-28T11:03:42.142Z,4.10
2017-05-28T11:06:09.405Z,4.50
2017-05-28T11:08:37.266Z,4.40
2017-05-28T11:11:04.486Z,4.18
2017-05-28T11:13:31.743Z,4.32
2017-05-28T11:15:59.116Z,4.75
2017-05-28T11:18:26.375Z,4.28
2017-05-28T11:20:53.571Z,4.70
2017-05-28T11:23:24.651Z,4.54
2017-05-28T11:25:51.905Z,4.08
2017-05-28T11:28:19.092Z,4.52
2017-05-28T11:30:46.278Z,4.63
2017-05-28T11:33:14.149Z,4.40
2017-05-28T11:35:41.358Z,4.64
2017-05-28T11:38:09.297Z,4.40
2017-05-28T11:40:36.678Z,5.87
2017-05-28T11:43:03.864Z,4.68
2017-05-28T11:45:32.293Z,4.35
2017-05-28T11:47:59.489Z,4.78
2017-05-28T11:50:26.994Z,4.00
2017-05-28T11:52:54.192Z,4.17
2017-05-28T11:55:21.383Z,4.72
2017-05-28T11:57:48.606Z,4.28
2017-05-28T12:00:15.826Z,4.25
2017-05-28T12:02:43.002Z,4.36
2017-05-28T12:05:10.287Z,4.23
2017-05-28T12:07:37.495Z,4.40
2017-05-28T12:10:04.670Z,3.95
2017-05-28T12:12:32.644Z,4.12
2017-05-28T12:14:59.936Z,4.35
2017-05-28T12:17:27.116Z,3.82
2017-05-28T12:19:54.484Z,4.55
2017-05-28T12:22:21.689Z,4.03
2017-05-28T12:24:48.931Z,4.03
2017-05-28T12:27:16.153Z,4.22
2017-05-28T12:29:43.353Z,4.00
2017-05-28T12:32:10.569Z,4.10
2017-05-28T12:34:38.298Z,4.42
2017-05-28T12:37:05.867Z,4.05
2017-05-28T12:39:33.083Z,4.63
2017-05-28T12:42:00.249Z,4.28
2017-05-28T12:44:27.540Z,4.33
2017-05-28T12:46:54.711Z,3.92
2017-05-28T12:49:21.982Z,4.60
2017-05-28T12:51:49.171Z,5.58
2017-05-28T12:54:16.953Z,5.02
2017-05-28T12:56:44.742Z,4.40
2017-05-28T12:59:11.929Z,4.25
2017-05-28T13:01:39.272Z,4.13
2017-05-28T13:04:06.460Z,4.17
2017-05-28T13:06:33.651Z,4.07
2017-05-28T13:09:01.003Z,4.47
2017-05-28T13:11:43.107Z,4.40
2017-05-28T13:14:10.299Z,4.10
2017-05-28T13:16:37.543Z,4.37
2017-05-28T13:20:41.780Z,4.30
2017-05-28T13:23:08.967Z,4.33
2017-05-28T13:25:36.218Z,4.70
2017-05-28T13:28:03.390Z,4.48
2017-05-28T13:30:30.584Z,4.30
2017-05-28T13:32:57.756Z,4.50
2017-05-28T13:35:24.939Z,4.07
2017-05-28T13:37:52.184Z,4.40
2017-05-28T13:40:19.422Z,4.00
2017-05-28T13:42:46.640Z,4.33
2017-05-28T13:45:13.810Z,4.23
2017-05-28T13:47:40.993Z,4.48
2017-05-28T13:50:08.187Z,4.18
2017-05-28T13:52:35.367Z,4.20
2017-05-28T13:55:02.539Z,4.18
2017-05-28T13:57:29.719Z,4.30
2017-05-28T13:59:56.896Z,4.12
2017-05-28T14:02:24.067Z,4.20
2017-05-28T14:04:51.482Z,4.68
2017-05-28T14:07:18.648Z,4.07
2017-05-28T14:09:45.809Z,4.34
2017-05-28T14:12:12.975Z,4.15
2017-05-28T14:14:40.181Z,4.25
2017-05-28T14:17:07.961Z,4.20
2017-05-28T14:19:35.146Z,4.60
2017-05-28T14:22:02.402Z,4.20
2017-05-28T14:24:29.618Z,4.13
2017-05-28T14:26:56.780Z,4.23
2017-05-28T14:29:24.124Z,4.03
2017-05-28T14:31:51.293Z,4.40
2017-05-28T14:34:18.467Z,4.30
2017-05-28T14:36:46.601Z,4.35
2017-05-28T14:39:13.773Z,4.32
2017-05-28T14:41:41.006Z,4.15
2017-05-28T14:44:08.279Z,4.27
2017-05-28T14:46:35.489Z,4.30
2017-05-28T14:49:02.839Z,5.12
2017-05-28T14:51:30.020Z,4.54
2017-05-28T14:53:57.200Z,4.57
2017-05-28T14:56:24.532Z,4.08
2017-05-28T14:58:51.723Z,5.97
2017-05-28T15:01:18.916Z,4.22
2017-05-28T15:03:46.101Z,4.17
2017-05-28T15:06:13.284Z,4.18
2017-05-28T15:08:40.970Z,4.50
2017-05-28T15:11:08.518Z,4.83
2017-05-28T15:13:36.351Z,6.53
2017-05-28T15:16:03.525Z,6.13
2017-05-28T15:18:30.680Z,5.05
2017-05-28T15:20:57.874Z,4.15
2017-05-28T15:23:25.180Z,4.40
2017-05-28T15:25:52.357Z,4.23
2017-05-28T15:28:19.627Z,4.37
2017-05-28T15:30:46.821Z,5.07
2017-05-28T15:33:14.178Z,4.20
2017-05-28T15:35:41.452Z,4.08
2017-05-28T15:38:08.671Z,4.24
2017-05-28T15:40:35.843Z,4.10
2017-05-28T15:43:03.028Z,4.64
2017-05-28T15:45:30.259Z,5.80
2017-05-28T15:47:57.443Z,4.44
2017-05-28T15:50:24.639Z,6.38
2017-05-28T15:52:51.960Z,6.50
2017-05-28T15:55:19.234Z,4.87
2017-05-28T15:57:47.026Z,4.07
2017-05-28T16:00:14.398Z,3.98
2017-05-28T16:02:41.637Z,4.32
2017-05-28T16:05:08.841Z,4.12
2017-05-28T16:07:36.004Z,4.05
2017-05-28T16:10:03.187Z,4.35
2017-05-28T16:12:30.401Z,4.20
2017-05-28T16:14:57.626Z,4.28
2017-05-28T16:17:24.822Z,3.70
2017-05-28T16:19:52.043Z,4.30
2017-05-28T16:22:19.190Z,4.40
2017-05-28T16:25:01.459Z,4.58
2017-05-28T16:27:28.640Z,4.18
2017-05-28T16:29:55.892Z,4.07
2017-05-28T16:32:23.177Z,4.34
2017-05-28T16:35:05.383Z,4.40
2017-05-28T16:37:32.572Z,3.90
2017-05-28T16:39:59.777Z,4.07
2017-05-28T16:42:26.952Z,4.74
2017-05-28T16:44:54.153Z,4.12
2017-05-28T16:47:21.401Z,4.00
2017-05-28T16:49:48.584Z,4.10
2017-05-28T16:52:15.742Z,4.06
2017-05-28T16:54:43.065Z,3.73
2017-05-28T16:57:10.251Z,3.88
2017-05-28T16:59:37.436Z,5.15
2017-05-28T17:02:04.713Z,3.76
2017-05-28T17:04:31.932Z,3.60
2017-05-28T17:06:59.338Z,3.97
2017-05-28T17:09:27.264Z,4.32
2017-05-28T17:11:54.457Z,4.22
2017-05-28T17:14:21.778Z,4.03
2017-05-28T17:16:49.155Z,3.97
2017-05-28T17:19:16.629Z,4.48
2017-05-28T17:21:44.008Z,3.88
2017-05-28T17:24:11.207Z,4.45
2017-05-28T17:26:39.580Z,4.02
2017-05-28T17:29:06.831Z,3.60
2017-05-28T17:31:34.227Z,3.90
2017-05-28T17:34:01.543Z,3.70
2017-05-28T17:36:28.880Z,3.82
2017-05-28T17:38:56.257Z,3.53
2017-05-28T17:41:23.944Z,4.00
2017-05-28T17:43:51.158Z,3.98
2017-05-28T17:46:18.407Z,3.82
2017-05-28T17:48:45.617Z,4.30
2017-05-28T17:51:12.802Z,6.70
2017-05-28T17:53:40.011Z,5.43
2017-05-28T17:56:07.391Z,4.25
2017-05-28T17:58:34.742Z,6.53
2017-05-28T18:01:02.094Z,4.22
2017-05-28T18:03:29.278Z,5.78
2017-05-28T18:05:56.460Z,5.12
2017-05-28T18:08:27.610Z,4.35
2017-05-28T18:10:54.911Z,4.12
2017-05-28T18:13:22.105Z,5.33
2017-05-28T18:15:49.327Z,11.65
2017-05-28T18:18:16.561Z,7.35
2017-05-28T18:20:43.783Z,8.45
2017-05-28T18:23:10.973Z,4.50
2017-05-28T18:25:38.253Z,5.63
2017-05-28T18:28:05.404Z,4.62
2017-05-28T18:30:32.695Z,4.95
2017-05-28T18:33:06.448Z,5.27
2017-05-28T18:35:36.254Z,4.60
2017-05-28T18:38:05.055Z,5.08
2017-05-28T18:40:32.465Z,3.88
2017-05-28T18:42:59.934Z,4.12
2017-05-28T18:45:27.820Z,3.90
2017-05-28T18:47:58.186Z,3.70
2017-05-28T18:50:28.077Z,4.02
2017-05-28T18:52:58.344Z,3.92
2017-05-28T18:55:29.559Z,4.26
2017-05-28T18:57:59.391Z,4.23
2017-05-28T19:00:31.652Z,4.48
2017-05-28T19:02:59.095Z,4.15
2017-05-28T19:05:26.304Z,4.18
2017-05-28T19:07:55.253Z,4.52
2017-05-28T19:10:22.512Z,4.37
2017-05-28T19:12:49.716Z,4.30
2017-05-28T19:15:17.178Z,4.53
2017-05-28T19:17:45.271Z,4.13
2017-05-28T19:20:12.546Z,4.58
2017-05-28T19:22:40.183Z,4.10
2017-05-28T19:25:07.711Z,4.13
2017-05-28T19:27:35.089Z,4.72
2017-05-28T19:30:02.470Z,5.52
2017-05-28T19:32:29.733Z,4.65
2017-05-28T19:34:57.110Z,4.72
2017-05-28T19:37:24.340Z,4.67
2017-05-28T19:39:51.763Z,4.50
2017-05-28T19:42:19.037Z,4.82
2017-05-28T19:44:46.516Z,5.25
2017-05-28T19:47:13.794Z,6.97
2017-05-28T19:49:40.996Z,6.32
2017-05-28T19:52:08.236Z,6.32
2017-05-28T19:54:36.362Z,5.88
2017-05-28T19:57:03.707Z,6.45
2017-05-28T19:59:30.945Z,6.25
2017-05-28T20:01:58.253Z,5.83
2017-05-28T20:04:25.505Z,5.30
2017-05-28T20:06:52.721Z,5.75
2017-05-28T20:09:19.949Z,5.67
2017-05-28T20:11:47.250Z,5.80
2017-05-28T20:14:14.614Z,5.80
2017-05-28T20:16:41.900Z,5.37
2017-05-28T20:19:09.110Z,5.68
2017-05-28T20:21:36.306Z,5.50
2017-05-28T20:24:03.502Z,5.30
2017-05-28T20:26:30.669Z,5.30
2017-05-28T20:28:57.863Z,5.23
2017-05-28T20:31:25.071Z,5.60
2017-05-28T20:33:52.257Z,7.14
2017-05-28T20:36:19.582Z,6.23
2017-05-28T20:38:46.753Z,5.32
2017-05-28T20:41:13.932Z,5.18
2017-05-28T20:43:41.283Z,5.52
2017-05-28T20:46:08.609Z,5.47
2017-05-28T20:48:35.883Z,6.58
2017-05-28T20:51:03.077Z,6.30
2017-05-28T20:53:30.264Z,6.70
2017-05-28T20:55:57.638Z,6.43
2017-05-28T20:58:24.815Z,6.87
2017-05-28T21:00:52.075Z,6.57
2017-05-28T21:03:19.292Z,6.40
2017-05-28T21:05:46.488Z,6.48
2017-05-28T21:08:13.739Z,6.03
2017-05-28T21:10:41.013Z,6.78
2017-05-28T21:13:08.238Z,6.60
2017-05-28T21:15:35.458Z,6.03
2017-05-28T21:18:02.738Z,6.43
2017-05-28T21:20:29.910Z,5.86
2017-05-28T21:22:57.180Z,6.02
2017-05-28T21:25:24.371Z,5.88
2017-05-28T21:27:51.570Z,5.42
2017-05-28T21:30:19.249Z,5.03
2017-05-28T21:32:46.503Z,4.32
2017-05-28T21:35:13.825Z,4.00
2017-05-28T21:37:40.980Z,4.28
2017-05-28T21:40:08.184Z,4.90
2017-05-28T21:42:35.346Z,4.30
2017-05-28T21:45:03.529Z,4.67
2017-05-28T21:47:30.708Z,4.40
2017-05-28T21:49:58.181Z,4.40
2017-05-28T21:52:25.369Z,4.95
2017-05-28T21:54:52.549Z,5.00
2017-05-28T21:57:19.735Z,4.80
2017-05-28T21:59:47.009Z,4.48
2017-05-28T22:02:14.170Z,4.36
2017-05-28T22:04:41.386Z,4.65
2017-05-28T22:07:08.604Z,4.67
2017-05-28T22:09:35.782Z,4.60
2017-05-28T22:12:03.074Z,4.50
2017-05-28T22:14:30.279Z,5.07
2017-05-28T22:16:57.560Z,4.50
2017-05-28T22:19:25.024Z,4.50
2017-05-28T22:21:52.211Z,4.50
2017-05-28T22:24:19.836Z,4.93
2017-05-28T22:26:47.658Z,4.90
2017-05-28T22:29:14.837Z,4.92
2017-05-28T22:31:42.029Z,4.60
2017-05-28T22:34:09.226Z,4.90
2017-05-28T22:36:36.410Z,5.02
2017-05-28T22:39:03.721Z,4.90
2017-05-28T22:41:30.897Z,4.90
2017-05-28T22:43:58.151Z,4.63
2017-05-28T22:46:25.343Z,4.60
2017-05-28T22:48:52.532Z,4.80
2017-05-28T22:51:19.715Z,4.80
2017-05-28T22:53:46.907Z,4.57
2017-05-28T22:56:14.091Z,4.95
2017-05-28T22:58:41.286Z,4.94
2017-05-28T23:01:08.444Z,4.92
2017-05-28T23:03:35.623Z,4.80
2017-05-28T23:06:02.829Z,5.00
2017-05-28T23:08:30.078Z,4.83
2017-05-28T23:10:57.237Z,5.07
2017-05-28T23:13:24.395Z,5.13
2017-05-28T23:15:51.694Z,5.33
2017-05-28T23:18:18.875Z,5.30
2017-05-28T23:20:46.057Z,4.80
2017-05-28T23:23:13.241Z,4.70
2017-05-28T23:25:40.806Z,4.76
2017-05-28T23:28:07.985Z,5.40
2017-05-28T23:30:35.193Z,4.70
2017-05-28T23:33:02.678Z,5.40
2017-05-28T23:35:29.837Z,5.10
2017-05-28T23:37:57.011Z,4.75
2017-05-28T23:40:24.191Z,5.08
2017-05-28T23:42:51.404Z,5.10
2017-05-28T23:45:18.680Z,5.02
2017-05-28T23:47:45.850Z,4.95
2017-05-28T23:50:13.000Z,5.20
2017-05-28T23:52:40.215Z,4.93
2017-05-28T23:55:07.892Z,4.78
2017-05-28T23:57:35.058Z,4.65
